sensor_id;sensor_type;location;lat;lon;timestamp;pressure;altitude;pressure_sealevel;temperature;humidity
6198;BME280;3132;42.622;23.328;2023-01-29T00:01:38;92786.22;;;-0.71;100.00
6198;BME280;3132;42.622;23.328;2023-01-29T00:04:03;92810.63;;;-0.68;100.00
6198;BME280;3132;42.622;23.328;2023-01-29T00:06:29;92813.16;;;-0.62;99.50
6198;BME280;3132;42.622;23.328;2023-01-29T00:08:55;92800.22;;;-0.73;98.40
6198;BME280;3132;42.622;23.328;2023-01-29T00:11:20;92811.81;;;-0.64;97.39
6198;BME280;3132;42.622;23.328;2023-01-29T00:13:48;92799.06;;;-0.77;97.42
6198;BME280;3132;42.622;23.328;2023-01-29T00:16:13;92823.09;;;-0.72;98.22
6198;BME280;3132;42.622;23.328;2023-01-29T00:18:40;92821.78;;;-0.87;99.72
6198;BME280;3132;42.622;23.328;2023-01-29T00:21:14;92774.06;;;-1.26;100.00
6198;BME280;3132;42.622;23.328;2023-01-29T00:23:40;92820.19;;;-0.88;100.00
6198;BME280;3132;42.622;23.328;2023-01-29T00:26:06;92813.53;;;-0.96;100.00
6198;BME280;3132;42.622;23.328;2023-01-29T00:28:31;92822.00;;;-0.89;100.00
6198;BME280;3132;42.622;23.328;2023-01-29T00:30:57;92827.56;;;-0.98;100.00
6198;BME280;3132;42.622;23.328;2023-01-29T00:33:22;92819.69;;;-1.03;100.00
6198;BME280;3132;42.622;23.328;2023-01-29T00:35:48;92792.97;;;-1.20;100.00
6198;BME280;3132;42.622;23.328;2023-01-29T00:38:13;92821.25;;;-1.02;100.00
6198;BME280;3132;42.622;23.328;2023-01-29T00:40:39;92819.31;;;-1.07;100.00
6198;BME280;3132;42.622;23.328;2023-01-29T00:43:24;92815.56;;;-1.04;100.00
6198;BME280;3132;42.622;23.328;2023-01-29T00:46:09;92817.50;;;-1.00;100.00
6198;BME280;3132;42.622;23.328;2023-01-29T00:48:34;92810.66;;;-1.12;100.00
6198;BME280;3132;42.622;23.328;2023-01-29T00:51:01;92788.69;;;-1.39;100.00
6198;BME280;3132;42.622;23.328;2023-01-29T00:53:27;92820.13;;;-1.13;100.00
6198;BME280;3132;42.622;23.328;2023-01-29T00:55:53;92807.34;;;-1.26;100.00
6198;BME280;3132;42.622;23.328;2023-01-29T00:58:18;92803.03;;;-1.25;100.00
6198;BME280;3132;42.622;23.328;2023-01-29T01:00:47;92826.66;;;-1.17;100.00
6198;BME280;3132;42.622;23.328;2023-01-29T01:03:13;92823.28;;;-1.17;100.00
6198;BME280;3132;42.622;23.328;2023-01-29T01:05:39;92810.31;;;-1.29;100.00
6198;BME280;3132;42.622;23.328;2023-01-29T01:08:04;92822.91;;;-1.21;100.00
6198;BME280;3132;42.622;23.328;2023-01-29T01:10:58;92810.31;;;-1.22;100.00
6198;BME280;3132;42.622;23.328;2023-01-29T01:13:24;92822.34;;;-1.29;100.00
6198;BME280;3132;42.622;23.328;2023-01-29T01:15:49;92815.81;;;-1.25;100.00
6198;BME280;3132;42.622;23.328;2023-01-29T01:18:14;92801.88;;;-1.36;100.00
6198;BME280;3132;42.622;23.328;2023-01-29T01:20:40;92826.66;;;-1.23;100.00
6198;BME280;3132;42.622;23.328;2023-01-29T01:23:05;92812.84;;;-1.22;100.00
6198;BME280;3132;42.622;23.328;2023-01-29T01:25:31;92795.19;;;-1.37;100.00
6198;BME280;3132;42.622;23.328;2023-01-29T01:27:58;92815.44;;;-1.29;100.00
6198;BME280;3132;42.622;23.328;2023-01-29T01:30:24;92813.28;;;-1.25;100.00
6198;BME280;3132;42.622;23.328;2023-01-29T01:32:49;92796.97;;;-1.37;100.00
6198;BME280;3132;42.622;23.328;2023-01-29T01:35:15;92820.91;;;-1.12;100.00
6198;BME280;3132;42.622;23.328;2023-01-29T01:37:40;92815.41;;;-1.22;100.00
6198;BME280;3132;42.622;23.328;2023-01-29T01:40:21;92822.75;;;-1.32;100.00
6198;BME280;3132;42.622;23.328;2023-01-29T01:42:55;92826.28;;;-1.27;100.00
6198;BME280;3132;42.622;23.328;2023-01-29T01:47:50;92801.69;;;-1.34;100.00
6198;BME280;3132;42.622;23.328;2023-01-29T01:50:26;92818.97;;;-1.23;100.00
6198;BME280;3132;42.622;23.328;2023-01-29T01:52:59;92821.75;;;-1.31;100.00
6198;BME280;3132;42.622;23.328;2023-01-29T01:55:28;92823.91;;;-1.28;100.00
6198;BME280;3132;42.622;23.328;2023-01-29T01:58:01;92836.72;;;-1.28;100.00
6198;BME280;3132;42.622;23.328;2023-01-29T02:00:27;92820.34;;;-1.27;100.00
6198;BME280;3132;42.622;23.328;2023-01-29T02:02:53;92837.66;;;-1.16;100.00
6198;BME280;3132;42.622;23.328;2023-01-29T02:05:38;92844.13;;;-1.07;100.00
6198;BME280;3132;42.622;23.328;2023-01-29T02:08:31;92843.19;;;-1.19;100.00
6198;BME280;3132;42.622;23.328;2023-01-29T02:11:18;92825.88;;;-1.24;100.00
6198;BME280;3132;42.622;23.328;2023-01-29T02:13:44;92842.84;;;-1.29;100.00
6198;BME280;3132;42.622;23.328;2023-01-29T02:16:10;92792.06;;;-1.45;100.00
6198;BME280;3132;42.622;23.328;2023-01-29T02:18:35;92834.34;;;-1.23;100.00
6198;BME280;3132;42.622;23.328;2023-01-29T02:28:42;92855.03;;;-1.25;100.00
6198;BME280;3132;42.622;23.328;2023-01-29T02:39:32;92860.75;;;-1.29;100.00
6198;BME280;3132;42.622;23.328;2023-01-29T02:44:55;92864.06;;;-1.22;100.00
6198;BME280;3132;42.622;23.328;2023-01-29T02:47:34;92869.41;;;-1.37;100.00
6198;BME280;3132;42.622;23.328;2023-01-29T02:55:30;92865.28;;;-1.31;100.00
6198;BME280;3132;42.622;23.328;2023-01-29T02:58:08;92882.41;;;-1.32;100.00
6198;BME280;3132;42.622;23.328;2023-01-29T03:00:40;92867.84;;;-1.25;100.00
6198;BME280;3132;42.622;23.328;2023-01-29T03:03:29;92862.94;;;-1.39;100.00
6198;BME280;3132;42.622;23.328;2023-01-29T03:06:01;92868.81;;;-1.26;100.00
6198;BME280;3132;42.622;23.328;2023-01-29T03:08:35;92874.50;;;-1.17;100.00
6198;BME280;3132;42.622;23.328;2023-01-29T03:11:09;92873.16;;;-1.26;100.00
6198;BME280;3132;42.622;23.328;2023-01-29T03:13:58;92872.53;;;-1.15;100.00
6198;BME280;3132;42.622;23.328;2023-01-29T03:16:31;92877.81;;;-1.10;100.00
6198;BME280;3132;42.622;23.328;2023-01-29T03:21:32;92856.41;;;-1.22;100.00
6198;BME280;3132;42.622;23.328;2023-01-29T03:24:43;92884.66;;;-0.91;100.00
6198;BME280;3132;42.622;23.328;2023-01-29T03:27:54;92874.84;;;-1.01;100.00
6198;BME280;3132;42.622;23.328;2023-01-29T03:30:42;92889.38;;;-0.88;99.99
6198;BME280;3132;42.622;23.328;2023-01-29T03:33:30;92893.53;;;-0.87;99.13
6198;BME280;3132;42.622;23.328;2023-01-29T03:36:04;92873.19;;;-0.82;97.91
6198;BME280;3132;42.622;23.328;2023-01-29T03:38:31;92886.19;;;-0.77;96.91
6198;BME280;3132;42.622;23.328;2023-01-29T03:41:13;92889.34;;;-0.75;97.07
6198;BME280;3132;42.622;23.328;2023-01-29T03:43:49;92888.94;;;-0.72;97.37
6198;BME280;3132;42.622;23.328;2023-01-29T03:46:25;92866.72;;;-0.91;96.58
6198;BME280;3132;42.622;23.328;2023-01-29T03:49:41;92869.91;;;-1.02;96.23
6198;BME280;3132;42.622;23.328;2023-01-29T03:51:57;92884.00;;;-0.74;97.20
6198;BME280;3132;42.622;23.328;2023-01-29T03:57:16;92859.25;;;-0.99;97.69
6198;BME280;3132;42.622;23.328;2023-01-29T04:00:10;92873.78;;;-0.80;99.34
6198;BME280;3132;42.622;23.328;2023-01-29T04:02:55;92866.50;;;-0.83;99.40
6198;BME280;3132;42.622;23.328;2023-01-29T04:05:30;92867.91;;;-0.87;98.64
6198;BME280;3132;42.622;23.328;2023-01-29T04:08:04;92872.56;;;-0.71;99.56
6198;BME280;3132;42.622;23.328;2023-01-29T04:10:32;92867.53;;;-0.97;98.31
6198;BME280;3132;42.622;23.328;2023-01-29T04:13:06;92875.41;;;-0.86;97.92
6198;BME280;3132;42.622;23.328;2023-01-29T04:15:39;92881.25;;;-0.72;98.70
6198;BME280;3132;42.622;23.328;2023-01-29T04:18:06;92848.66;;;-1.03;97.05
6198;BME280;3132;42.622;23.328;2023-01-29T04:20:33;92877.78;;;-0.97;97.45
6198;BME280;3132;42.622;23.328;2023-01-29T04:22:59;92896.25;;;-0.82;96.89
6198;BME280;3132;42.622;23.328;2023-01-29T04:25:28;92890.31;;;-0.76;97.22
6198;BME280;3132;42.622;23.328;2023-01-29T04:28:22;92882.31;;;-0.93;96.74
6198;BME280;3132;42.622;23.328;2023-01-29T04:31:02;92889.59;;;-0.96;98.61
6198;BME280;3132;42.622;23.328;2023-01-29T04:41:49;92898.28;;;-0.91;97.87
6198;BME280;3132;42.622;23.328;2023-01-29T04:44:36;92910.09;;;-0.90;97.12
6198;BME280;3132;42.622;23.328;2023-01-29T04:47:18;92900.97;;;-0.79;98.14
6198;BME280;3132;42.622;23.328;2023-01-29T04:52:43;92904.34;;;-0.85;98.36
6198;BME280;3132;42.622;23.328;2023-01-29T04:55:20;92902.38;;;-0.83;100.00
6198;BME280;3132;42.622;23.328;2023-01-29T04:57:53;92898.88;;;-0.95;97.84
6198;BME280;3132;42.622;23.328;2023-01-29T05:00:28;92904.75;;;-0.88;97.21
6198;BME280;3132;42.622;23.328;2023-01-29T05:02:58;92887.25;;;-0.98;97.10
6198;BME280;3132;42.622;23.328;2023-01-29T05:05:24;92880.97;;;-1.08;96.71
6198;BME280;3132;42.622;23.328;2023-01-29T05:07:51;92904.97;;;-0.96;96.67
6198;BME280;3132;42.622;23.328;2023-01-29T05:10:19;92900.47;;;-1.07;97.49
6198;BME280;3132;42.622;23.328;2023-01-29T05:12:57;92903.63;;;-1.05;99.73
6198;BME280;3132;42.622;23.328;2023-01-29T05:15:29;92905.03;;;-1.09;98.45
6198;BME280;3132;42.622;23.328;2023-01-29T05:17:56;92891.25;;;-1.21;98.19
6198;BME280;3132;42.622;23.328;2023-01-29T05:20:30;92887.75;;;-1.33;98.96
6198;BME280;3132;42.622;23.328;2023-01-29T05:22:57;92913.66;;;-1.04;98.37
6198;BME280;3132;42.622;23.328;2023-01-29T05:25:29;92859.19;;;-1.37;100.00
6198;BME280;3132;42.622;23.328;2023-01-29T05:27:55;92887.72;;;-1.27;98.43
6198;BME280;3132;42.622;23.328;2023-01-29T05:30:41;92913.13;;;-1.19;98.24
6198;BME280;3132;42.622;23.328;2023-01-29T05:35:37;92917.84;;;-1.16;98.78
6198;BME280;3132;42.622;23.328;2023-01-29T05:38:02;92906.03;;;-1.23;98.51
6198;BME280;3132;42.622;23.328;2023-01-29T05:40:28;92894.00;;;-1.16;99.86
6198;BME280;3132;42.622;23.328;2023-01-29T05:42:53;92909.97;;;-1.14;99.03
6198;BME280;3132;42.622;23.328;2023-01-29T05:45:19;92897.78;;;-1.32;99.11
6198;BME280;3132;42.622;23.328;2023-01-29T05:47:45;92923.97;;;-1.23;99.52
6198;BME280;3132;42.622;23.328;2023-01-29T05:50:12;92920.94;;;-1.01;99.71
6198;BME280;3132;42.622;23.328;2023-01-29T05:52:37;92924.72;;;-1.10;100.00
6198;BME280;3132;42.622;23.328;2023-01-29T05:55:03;92903.28;;;-1.15;100.00
6198;BME280;3132;42.622;23.328;2023-01-29T05:57:29;92931.06;;;-1.19;100.00
6198;BME280;3132;42.622;23.328;2023-01-29T05:59:54;92938.16;;;-1.27;100.00
6198;BME280;3132;42.622;23.328;2023-01-29T06:02:20;92943.84;;;-1.12;100.00
6198;BME280;3132;42.622;23.328;2023-01-29T06:04:45;92941.09;;;-1.17;100.00
6198;BME280;3132;42.622;23.328;2023-01-29T06:07:11;92937.75;;;-1.18;100.00
6198;BME280;3132;42.622;23.328;2023-01-29T06:09:36;92944.84;;;-1.20;100.00
6198;BME280;3132;42.622;23.328;2023-01-29T06:12:02;92945.63;;;-1.19;100.00
6198;BME280;3132;42.622;23.328;2023-01-29T06:14:30;92953.09;;;-1.24;100.00
6198;BME280;3132;42.622;23.328;2023-01-29T06:16:56;92953.09;;;-1.11;100.00
6198;BME280;3132;42.622;23.328;2023-01-29T06:19:21;92934.00;;;-1.22;100.00
6198;BME280;3132;42.622;23.328;2023-01-29T06:21:47;92951.53;;;-1.12;100.00
6198;BME280;3132;42.622;23.328;2023-01-29T06:24:12;92966.84;;;-0.99;100.00
6198;BME280;3132;42.622;23.328;2023-01-29T06:26:37;92941.88;;;-1.17;100.00
6198;BME280;3132;42.622;23.328;2023-01-29T06:29:03;92970.63;;;-0.95;100.00
6198;BME280;3132;42.622;23.328;2023-01-29T06:31:28;92977.91;;;-1.05;100.00
6198;BME280;3132;42.622;23.328;2023-01-29T06:33:54;92976.75;;;-1.09;100.00
6198;BME280;3132;42.622;23.328;2023-01-29T06:36:19;92988.75;;;-1.10;100.00
6198;BME280;3132;42.622;23.328;2023-01-29T06:38:44;92976.34;;;-1.06;100.00
6198;BME280;3132;42.622;23.328;2023-01-29T06:41:12;92981.88;;;-1.16;100.00
6198;BME280;3132;42.622;23.328;2023-01-29T06:43:39;92989.16;;;-1.00;100.00
6198;BME280;3132;42.622;23.328;2023-01-29T06:46:07;92992.47;;;-0.99;100.00
6198;BME280;3132;42.622;23.328;2023-01-29T06:48:33;92991.47;;;-0.85;100.00
6198;BME280;3132;42.622;23.328;2023-01-29T06:51:03;92993.44;;;-0.81;100.00
6198;BME280;3132;42.622;23.328;2023-01-29T06:53:31;92985.13;;;-0.76;100.00
6198;BME280;3132;42.622;23.328;2023-01-29T06:55:57;92976.69;;;-0.77;100.00
6198;BME280;3132;42.622;23.328;2023-01-29T06:58:22;92994.81;;;-0.72;100.00
6198;BME280;3132;42.622;23.328;2023-01-29T07:00:48;92979.84;;;-0.81;100.00
6198;BME280;3132;42.622;23.328;2023-01-29T07:03:13;92960.50;;;-0.77;100.00
6198;BME280;3132;42.622;23.328;2023-01-29T07:05:38;92988.63;;;-0.51;99.92
6198;BME280;3132;42.622;23.328;2023-01-29T07:08:04;92988.88;;;-0.72;100.00
6198;BME280;3132;42.622;23.328;2023-01-29T07:10:29;92981.63;;;-0.82;100.00
6198;BME280;3132;42.622;23.328;2023-01-29T07:12:57;93008.97;;;-0.56;100.00
6198;BME280;3132;42.622;23.328;2023-01-29T07:15:22;93001.44;;;-0.51;100.00
6198;BME280;3132;42.622;23.328;2023-01-29T07:17:56;93005.06;;;-0.78;100.00
6198;BME280;3132;42.622;23.328;2023-01-29T07:20:22;93006.22;;;-0.74;100.00
6198;BME280;3132;42.622;23.328;2023-01-29T07:22:48;93016.69;;;-0.69;100.00
6198;BME280;3132;42.622;23.328;2023-01-29T07:25:13;93020.84;;;-0.75;100.00
6198;BME280;3132;42.622;23.328;2023-01-29T07:27:39;93009.78;;;-0.69;100.00
6198;BME280;3132;42.622;23.328;2023-01-29T07:30:05;93024.34;;;-0.63;100.00
6198;BME280;3132;42.622;23.328;2023-01-29T07:32:30;93026.53;;;-0.66;100.00
6198;BME280;3132;42.622;23.328;2023-01-29T07:34:56;93001.44;;;-0.51;100.00
6198;BME280;3132;42.622;23.328;2023-01-29T07:37:21;93010.84;;;-0.39;100.00
6198;BME280;3132;42.622;23.328;2023-01-29T07:39:46;93023.88;;;-0.34;100.00
6198;BME280;3132;42.622;23.328;2023-01-29T07:42:12;93031.34;;;-0.26;100.00
6198;BME280;3132;42.622;23.328;2023-01-29T07:44:37;93006.75;;;-0.46;98.67
6198;BME280;3132;42.622;23.328;2023-01-29T07:47:02;93018.31;;;-0.31;99.41
6198;BME280;3132;42.622;23.328;2023-01-29T07:49:28;93025.72;;;-0.03;98.70
6198;BME280;3132;42.622;23.328;2023-01-29T07:51:53;93024.38;;;-0.12;97.65
6198;BME280;3132;42.622;23.328;2023-01-29T07:54:19;93029.63;;;0.06;97.77
6198;BME280;3132;42.622;23.328;2023-01-29T07:56:44;93043.03;;;0.08;97.38
6198;BME280;3132;42.622;23.328;2023-01-29T07:59:09;93033.59;;;-0.05;97.42
6198;BME280;3132;42.622;23.328;2023-01-29T08:01:35;93043.03;;;0.08;98.06
6198;BME280;3132;42.622;23.328;2023-01-29T08:04:00;93043.44;;;0.05;98.13
6198;BME280;3132;42.622;23.328;2023-01-29T08:06:26;93043.53;;;-0.15;98.02
6198;BME280;3132;42.622;23.328;2023-01-29T08:08:51;93043.34;;;-0.13;98.86
6198;BME280;3132;42.622;23.328;2023-01-29T08:11:17;93035.09;;;-0.28;100.00
6198;BME280;3132;42.622;23.328;2023-01-29T08:13:43;93027.22;;;-0.27;100.00
6198;BME280;3132;42.622;23.328;2023-01-29T08:16:09;93019.94;;;-0.30;100.00
6198;BME280;3132;42.622;23.328;2023-01-29T08:18:36;93036.88;;;-0.29;100.00
6198;BME280;3132;42.622;23.328;2023-01-29T08:21:02;93046.72;;;-0.26;100.00
6198;BME280;3132;42.622;23.328;2023-01-29T08:23:28;93027.66;;;-0.49;100.00
6198;BME280;3132;42.622;23.328;2023-01-29T08:25:54;93044.44;;;-0.53;100.00
6198;BME280;3132;42.622;23.328;2023-01-29T08:28:19;93010.72;;;-0.50;100.00
6198;BME280;3132;42.622;23.328;2023-01-29T08:30:45;93047.75;;;-0.40;100.00
6198;BME280;3132;42.622;23.328;2023-01-29T08:33:10;93029.09;;;-0.60;100.00
6198;BME280;3132;42.622;23.328;2023-01-29T08:35:37;93052.41;;;0.27;100.00
6198;BME280;3132;42.622;23.328;2023-01-29T08:38:03;93058.94;;;-0.21;100.00
6198;BME280;3132;42.622;23.328;2023-01-29T08:40:31;93053.59;;;-0.13;100.00
6198;BME280;3132;42.622;23.328;2023-01-29T08:43:01;93056.34;;;-0.08;100.00
6198;BME280;3132;42.622;23.328;2023-01-29T08:45:27;93057.72;;;-0.12;100.00
6198;BME280;3132;42.622;23.328;2023-01-29T08:47:52;93070.56;;;-0.12;100.00
6198;BME280;3132;42.622;23.328;2023-01-29T08:50:18;93070.41;;;-0.24;100.00
6198;BME280;3132;42.622;23.328;2023-01-29T08:52:44;93077.56;;;-0.45;100.00
6198;BME280;3132;42.622;23.328;2023-01-29T08:55:10;93082.84;;;-0.27;99.96
6198;BME280;3132;42.622;23.328;2023-01-29T08:57:37;93081.06;;;-0.27;100.00
6198;BME280;3132;42.622;23.328;2023-01-29T09:00:04;93083.19;;;-0.17;100.00
6198;BME280;3132;42.622;23.328;2023-01-29T09:02:30;93077.69;;;-0.21;99.70
6198;BME280;3132;42.622;23.328;2023-01-29T09:04:55;93099.25;;;-0.35;100.00
6198;BME280;3132;42.622;23.328;2023-01-29T09:07:21;93081.50;;;-0.43;100.00
6198;BME280;3132;42.622;23.328;2023-01-29T09:09:46;93088.78;;;-0.27;100.00
6198;BME280;3132;42.622;23.328;2023-01-29T09:12:12;93065.63;;;-0.20;100.00
6198;BME280;3132;42.622;23.328;2023-01-29T09:14:37;93069.88;;;0.12;100.00
6198;BME280;3132;42.622;23.328;2023-01-29T09:17:02;93082.28;;;0.22;100.00
6198;BME280;3132;42.622;23.328;2023-01-29T09:19:28;93079.78;;;0.02;99.23
6198;BME280;3132;42.622;23.328;2023-01-29T09:21:53;93088.72;;;0.37;99.23
6198;BME280;3132;42.622;23.328;2023-01-29T09:24:18;93087.50;;;0.40;98.38
6198;BME280;3132;42.622;23.328;2023-01-29T09:26:44;93084.75;;;0.35;100.00
6198;BME280;3132;42.622;23.328;2023-01-29T09:29:09;93077.66;;;0.37;97.91
6198;BME280;3132;42.622;23.328;2023-01-29T09:31:35;93070.09;;;0.04;98.31
6198;BME280;3132;42.622;23.328;2023-01-29T09:34:00;93082.91;;;0.17;99.59
6198;BME280;3132;42.622;23.328;2023-01-29T09:36:26;93084.03;;;0.21;99.09
6198;BME280;3132;42.622;23.328;2023-01-29T09:38:51;93084.44;;;0.25;100.00
6198;BME280;3132;42.622;23.328;2023-01-29T09:44:21;93076.09;;;0.36;100.00
6198;BME280;3132;42.622;23.328;2023-01-29T09:46:48;93067.53;;;0.04;98.56
6198;BME280;3132;42.622;23.328;2023-01-29T09:49:30;93052.25;;;-0.22;99.21
6198;BME280;3132;42.622;23.328;2023-01-29T09:52:02;93065.78;;;0.05;99.29
6198;BME280;3132;42.622;23.328;2023-01-29T09:54:32;93075.91;;;0.31;98.04
6198;BME280;3132;42.622;23.328;2023-01-29T09:57:06;93074.38;;;0.23;97.90
6198;BME280;3132;42.622;23.328;2023-01-29T09:59:34;93071.69;;;0.43;97.95
6198;BME280;3132;42.622;23.328;2023-01-29T10:15:44;93055.63;;;0.16;100.00
6198;BME280;3132;42.622;23.328;2023-01-29T10:24:08;93053.47;;;0.13;98.59
6198;BME280;3132;42.622;23.328;2023-01-29T10:26:38;93052.09;;;0.17;98.98
6198;BME280;3132;42.622;23.328;2023-01-29T10:29:06;93040.66;;;0.13;98.60
6198;BME280;3132;42.622;23.328;2023-01-29T10:31:36;93046.75;;;0.19;98.97
6198;BME280;3132;42.622;23.328;2023-01-29T10:34:13;93044.44;;;0.04;99.91
6198;BME280;3132;42.622;23.328;2023-01-29T10:36:46;93044.06;;;-0.06;100.00
6198;BME280;3132;42.622;23.328;2023-01-29T10:39:20;93036.56;;;-0.01;100.00
6198;BME280;3132;42.622;23.328;2023-01-29T10:58:53;93029.09;;;-0.09;100.00
6198;BME280;3132;42.622;23.328;2023-01-29T11:01:19;93030.50;;;-0.13;100.00
6198;BME280;3132;42.622;23.328;2023-01-29T11:03:44;93029.56;;;0.13;100.00
6198;BME280;3132;42.622;23.328;2023-01-29T11:11:49;93022.28;;;-0.28;100.00
6198;BME280;3132;42.622;23.328;2023-01-29T11:14:26;93023.44;;;-0.24;100.00
6198;BME280;3132;42.622;23.328;2023-01-29T11:16:52;93021.41;;;-0.16;100.00
6198;BME280;3132;42.622;23.328;2023-01-29T11:19:36;93031.19;;;0.14;100.00
6198;BME280;3132;42.622;23.328;2023-01-29T11:22:02;93013.25;;;0.07;100.00
6198;BME280;3132;42.622;23.328;2023-01-29T11:24:28;93021.75;;;0.39;100.00
6198;BME280;3132;42.622;23.328;2023-01-29T11:26:57;93013.00;;;0.15;99.37
6198;BME280;3132;42.622;23.328;2023-01-29T11:31:55;93007.38;;;0.31;99.63
6198;BME280;3132;42.622;23.328;2023-01-29T11:34:23;92996.41;;;0.11;99.29
6198;BME280;3132;42.622;23.328;2023-01-29T11:37:00;92994.03;;;0.16;99.39
6198;BME280;3132;42.622;23.328;2023-01-29T11:39:28;92995.31;;;0.32;99.48
6198;BME280;3132;42.622;23.328;2023-01-29T11:42:01;92990.72;;;0.09;99.87
6198;BME280;3132;42.622;23.328;2023-01-29T11:44:34;92986.00;;;0.37;99.02
6198;BME280;3132;42.622;23.328;2023-01-29T11:47:20;92988.97;;;0.90;96.94
6198;BME280;3132;42.622;23.328;2023-01-29T11:49:53;92987.31;;;0.95;96.10
6198;BME280;3132;42.622;23.328;2023-01-29T11:52:39;92964.81;;;0.91;96.43
6198;BME280;3132;42.622;23.328;2023-01-29T11:55:18;92981.34;;;0.77;95.06
6198;BME280;3132;42.622;23.328;2023-01-29T11:57:48;92964.19;;;0.53;95.07
6198;BME280;3132;42.622;23.328;2023-01-29T12:00:26;92987.75;;;0.92;94.80
6198;BME280;3132;42.622;23.328;2023-01-29T12:02:55;92992.22;;;0.54;94.90
6198;BME280;3132;42.622;23.328;2023-01-29T12:05:23;92974.91;;;0.68;95.55
6198;BME280;3132;42.622;23.328;2023-01-29T12:07:55;92968.84;;;0.87;95.13
6198;BME280;3132;42.622;23.328;2023-01-29T12:10:50;92978.34;;;1.04;94.25
6198;BME280;3132;42.622;23.328;2023-01-29T12:13:25;92972.66;;;1.02;94.55
6198;BME280;3132;42.622;23.328;2023-01-29T12:16:08;92968.56;;;0.95;95.39
6198;BME280;3132;42.622;23.328;2023-01-29T12:18:38;92966.59;;;0.90;95.29
6198;BME280;3132;42.622;23.328;2023-01-29T12:21:28;92973.63;;;1.01;94.85
6198;BME280;3132;42.622;23.328;2023-01-29T12:24:05;92974.91;;;0.92;95.20
6198;BME280;3132;42.622;23.328;2023-01-29T12:26:35;92979.22;;;0.74;96.81
6198;BME280;3132;42.622;23.328;2023-01-29T12:29:16;92979.94;;;0.56;96.71
6198;BME280;3132;42.622;23.328;2023-01-29T12:34:53;92984.41;;;0.67;97.35
6198;BME280;3132;42.622;23.328;2023-01-29T12:37:31;92987.06;;;0.54;97.59
6198;BME280;3132;42.622;23.328;2023-01-29T12:40:00;92991.38;;;0.60;97.92
6198;BME280;3132;42.622;23.328;2023-01-29T12:42:26;92984.50;;;0.79;96.27
6198;BME280;3132;42.622;23.328;2023-01-29T12:44:58;92993.06;;;0.48;97.43
6198;BME280;3132;42.622;23.328;2023-01-29T12:47:47;92981.22;;;0.41;98.15
6198;BME280;3132;42.622;23.328;2023-01-29T12:50:18;92977.69;;;0.42;98.53
6198;BME280;3132;42.622;23.328;2023-01-29T12:52:49;92979.16;;;0.31;98.86
6198;BME280;3132;42.622;23.328;2023-01-29T12:55:19;92976.00;;;0.29;99.07
6198;BME280;3132;42.622;23.328;2023-01-29T13:00:20;92962.03;;;0.50;98.15
6198;BME280;3132;42.622;23.328;2023-01-29T13:05:53;92983.00;;;0.71;97.32
6198;BME280;3132;42.622;23.328;2023-01-29T13:08:26;92979.72;;;0.58;96.31
6198;BME280;3132;42.622;23.328;2023-01-29T13:10:54;92975.56;;;0.32;97.56
6198;BME280;3132;42.622;23.328;2023-01-29T13:16:09;92982.56;;;0.74;96.74
6198;BME280;3132;42.622;23.328;2023-01-29T13:18:39;92977.16;;;0.58;97.26
6198;BME280;3132;42.622;23.328;2023-01-29T13:21:11;92962.53;;;0.34;98.08
6198;BME280;3132;42.622;23.328;2023-01-29T13:23:42;92965.09;;;0.34;98.16
6198;BME280;3132;42.622;23.328;2023-01-29T13:26:08;92962.75;;;0.32;97.93
6198;BME280;3132;42.622;23.328;2023-01-29T13:28:33;92964.88;;;0.35;97.61
6198;BME280;3132;42.622;23.328;2023-01-29T13:33:40;92979.34;;;0.61;98.29
6198;BME280;3132;42.622;23.328;2023-01-29T13:36:13;92974.91;;;0.43;98.10
6198;BME280;3132;42.622;23.328;2023-01-29T13:38:41;92977.78;;;0.22;98.60
6198;BME280;3132;42.622;23.328;2023-01-29T13:41:09;92957.84;;;-0.07;99.43
6198;BME280;3132;42.622;23.328;2023-01-29T13:43:40;92959.97;;;0.03;99.16
6198;BME280;3132;42.622;23.328;2023-01-29T13:46:08;93003.06;;;0.25;99.23
6198;BME280;3132;42.622;23.328;2023-01-29T13:48:40;92998.88;;;0.31;99.25
6198;BME280;3132;42.622;23.328;2023-01-29T13:51:10;92993.97;;;-0.09;100.00
6198;BME280;3132;42.622;23.328;2023-01-29T13:53:56;92998.47;;;0.03;100.00
6198;BME280;3132;42.622;23.328;2023-01-29T13:59:04;93006.38;;;0.01;100.00
6198;BME280;3132;42.622;23.328;2023-01-29T14:04:22;93008.28;;;0.12;100.00
6198;BME280;3132;42.622;23.328;2023-01-29T14:06:59;93006.38;;;0.01;100.00
6198;BME280;3132;42.622;23.328;2023-01-29T14:12:39;93011.22;;;-0.22;100.00
6198;BME280;3132;42.622;23.328;2023-01-29T14:15:22;93011.88;;;-0.46;100.00
6198;BME280;3132;42.622;23.328;2023-01-29T14:18:04;93001.81;;;-0.48;100.00
6198;BME280;3132;42.622;23.328;2023-01-29T14:28:58;93029.28;;;-0.68;100.00
6198;BME280;3132;42.622;23.328;2023-01-29T14:31:54;93036.16;;;-0.55;100.00
6198;BME280;3132;42.622;23.328;2023-01-29T14:37:14;93027.69;;;-0.56;100.00
6198;BME280;3132;42.622;23.328;2023-01-29T14:43:01;93044.78;;;-0.37;100.00
6198;BME280;3132;42.622;23.328;2023-01-29T14:45:34;93047.19;;;-0.48;100.00
6198;BME280;3132;42.622;23.328;2023-01-29T14:52:58;93045.22;;;-0.46;100.00
6198;BME280;3132;42.622;23.328;2023-01-29T14:58:03;93036.91;;;-0.35;100.00
6198;BME280;3132;42.622;23.328;2023-01-29T15:00:33;93027.25;;;-0.40;100.00
6198;BME280;3132;42.622;23.328;2023-01-29T15:03:03;93026.59;;;-0.22;100.00
6198;BME280;3132;42.622;23.328;2023-01-29T15:05:37;92980.78;;;-0.69;100.00
6198;BME280;3132;42.622;23.328;2023-01-29T15:08:20;93023.88;;;-0.40;100.00
6198;BME280;3132;42.622;23.328;2023-01-29T15:10:53;93026.66;;;-0.42;100.00
6198;BME280;3132;42.622;23.328;2023-01-29T15:16:55;93025.63;;;-0.34;100.00
6198;BME280;3132;42.622;23.328;2023-01-29T15:19:28;93019.56;;;-0.46;100.00
6198;BME280;3132;42.622;23.328;2023-01-29T15:24:27;93026.66;;;-0.48;100.00
6198;BME280;3132;42.622;23.328;2023-01-29T15:26:53;93019.22;;;-0.56;100.00
6198;BME280;3132;42.622;23.328;2023-01-29T15:29:26;93000.56;;;-0.83;100.00
6198;BME280;3132;42.622;23.328;2023-01-29T15:31:52;93027.53;;;-0.74;100.00
6198;BME280;3132;42.622;23.328;2023-01-29T15:34:18;93022.22;;;-0.72;100.00
6198;BME280;3132;42.622;23.328;2023-01-29T15:36:44;93044.88;;;-0.69;100.00
6198;BME280;3132;42.622;23.328;2023-01-29T15:41:37;93031.91;;;-0.87;100.00
6198;BME280;3132;42.622;23.328;2023-01-29T15:44:02;93040.16;;;-0.85;100.00
6198;BME280;3132;42.622;23.328;2023-01-29T15:46:36;93039.00;;;-0.83;100.00
6198;BME280;3132;42.622;23.328;2023-01-29T15:49:07;93036.03;;;-0.86;100.00
6198;BME280;3132;42.622;23.328;2023-01-29T15:51:34;93047.63;;;-0.71;100.00